createdAt,value
2018-03-02T00:00:38.779Z,100372.94
2018-03-02T00:03:11.285Z,100372.84
2018-03-02T00:05:43.797Z,100370.72
2018-03-02T00:08:16.307Z,100362.28
2018-03-02T00:10:48.829Z,100363.02
2018-03-02T00:13:21.324Z,100362.09
2018-03-02T00:15:53.865Z,100359.58
2018-03-02T00:18:26.375Z,100352.98
2018-03-02T00:20:58.911Z,100347.07
2018-03-02T00:23:31.431Z,100347.72
2018-03-02T00:26:03.965Z,100343.39
2018-03-02T00:28:36.502Z,100337.14
2018-03-02T00:31:09.583Z,100332.13
2018-03-02T00:33:42.134Z,100333.86
2018-03-02T00:36:15.463Z,100328.13
2018-03-02T00:38:47.985Z,100336.70
2018-03-02T00:41:20.493Z,100325.84
2018-03-02T00:43:53.020Z,100321.92
2018-03-02T00:46:26.058Z,100316.98
2018-03-02T00:48:59.258Z,100313.36
2018-03-02T00:51:31.762Z,100308.14
2018-03-02T00:54:04.308Z,100302.55
2018-03-02T00:56:36.813Z,100299.35
2018-03-02T00:59:09.348Z,100302.73
2018-03-02T01:01:41.863Z,100296.86
2018-03-02T01:04:14.418Z,100286.68
2018-03-02T01:06:46.924Z,100287.46
2018-03-02T01:09:19.444Z,100289.94
2018-03-02T01:11:51.944Z,100282.45
2018-03-02T01:14:24.466Z,100282.93
2018-03-02T01:16:56.996Z,100277.23
2018-03-02T01:19:29.529Z,100268.40
2018-03-02T01:22:02.030Z,100275.06
2018-03-02T01:24:36.570Z,100273.94
2018-03-02T01:27:09.079Z,100269.02
2018-03-02T01:29:41.603Z,100274.70
2018-03-02T01:32:14.109Z,100262.05
2018-03-02T01:34:46.633Z,100264.82
2018-03-02T01:37:19.149Z,100264.19
2018-03-02T01:39:51.686Z,100257.48
2018-03-02T01:42:24.200Z,100253.94
2018-03-02T01:44:56.762Z,100264.55
2018-03-02T01:47:29.307Z,100243.89
2018-03-02T01:50:01.832Z,100247.05
2018-03-02T01:52:34.353Z,100250.36
2018-03-02T01:55:06.894Z,100247.88
2018-03-02T01:57:39.408Z,100241.44
2018-03-02T02:00:11.948Z,100241.81
2018-03-02T02:02:44.808Z,100232.63
2018-03-02T02:05:17.323Z,100229.45
2018-03-02T02:07:49.826Z,100234.02
2018-03-02T02:10:22.348Z,100219.94
2018-03-02T02:12:54.857Z,100226.91
2018-03-02T02:15:27.386Z,100222.28
2018-03-02T02:17:59.967Z,100214.34
2018-03-02T02:20:32.487Z,100209.80
2018-03-02T02:23:05.000Z,100215.59
2018-03-02T02:25:37.516Z,100207.97
2018-03-02T02:28:10.038Z,100210.23
2018-03-02T02:30:42.560Z,100193.67
2018-03-02T02:33:15.087Z,100191.60
2018-03-02T02:35:47.616Z,100188.73
2018-03-02T02:38:20.173Z,100182.45
2018-03-02T02:40:52.747Z,100190.91
2018-03-02T02:43:25.248Z,100185.81
2018-03-02T02:45:57.796Z,100185.38
2018-03-02T02:48:30.300Z,100185.44
2018-03-02T02:51:02.851Z,100173.23
2018-03-02T02:53:35.357Z,100191.30
2018-03-02T02:56:07.936Z,100189.16
2018-03-02T02:58:40.456Z,100188.97
2018-03-02T03:01:12.983Z,100185.69
2018-03-02T03:03:45.518Z,100184.21
2018-03-02T03:06:18.040Z,100188.91
2018-03-02T03:08:50.534Z,100175.52
2018-03-02T03:11:23.068Z,100175.52
2018-03-02T03:13:56.556Z,100167.75
2018-03-02T03:16:29.087Z,100175.55
2018-03-02T03:19:01.591Z,100165.92
2018-03-02T03:21:34.134Z,100170.81
2018-03-02T03:24:06.642Z,100161.80
2018-03-02T03:26:39.166Z,100163.84
2018-03-02T03:29:11.682Z,100163.42
2018-03-02T03:31:44.216Z,100155.30
2018-03-02T03:34:16.729Z,100158.78
2018-03-02T03:36:49.263Z,100160.52
2018-03-02T03:39:21.800Z,100156.32
2018-03-02T03:41:54.315Z,100157.39
2018-03-02T03:44:26.828Z,100154.48
2018-03-02T03:46:59.347Z,100153.98
2018-03-02T03:49:31.855Z,100155.70
2018-03-02T03:52:04.377Z,100143.67
2018-03-02T03:54:37.909Z,100153.52
2018-03-02T03:57:10.436Z,100151.91
2018-03-02T03:59:42.944Z,100160.16
2018-03-02T04:02:15.479Z,100149.73
2018-03-02T04:04:48.003Z,100147.36
2018-03-02T04:07:20.579Z,100145.55
2018-03-02T04:09:53.118Z,100148.17
2018-03-02T04:12:25.630Z,100140.62
2018-03-02T04:14:58.165Z,100135.89
2018-03-02T04:17:30.729Z,100135.73
2018-03-02T04:20:03.268Z,100129.40
2018-03-02T04:22:35.778Z,100138.81
2018-03-02T04:25:08.306Z,100135.85
2018-03-02T04:27:40.829Z,100138.23
2018-03-02T04:30:13.372Z,100133.44
2018-03-02T04:32:45.880Z,100127.54
2018-03-02T04:35:18.421Z,100120.41
2018-03-02T04:37:50.938Z,100123.31
2018-03-02T04:40:23.470Z,100117.73
2018-03-02T04:42:55.983Z,100119.00
2018-03-02T04:45:28.651Z,100113.08
2018-03-02T04:48:01.184Z,100112.76
2018-03-02T04:50:33.720Z,100117.14
2018-03-02T04:53:06.966Z,100113.17
2018-03-02T04:58:37.016Z,100104.48
2018-03-02T05:01:09.556Z,100101.13
2018-03-02T05:03:42.130Z,100094.41
2018-03-02T05:06:14.651Z,100098.63
2018-03-02T05:08:47.157Z,100091.26
2018-03-02T05:11:19.716Z,100086.77
2018-03-02T05:13:52.228Z,100092.08
2018-03-02T05:16:24.759Z,100088.38
2018-03-02T05:18:57.271Z,100083.15
2018-03-02T05:21:29.800Z,100079.22
2018-03-02T05:24:02.310Z,100079.27
2018-03-02T05:26:34.842Z,100076.71
2018-03-02T05:29:07.352Z,100071.36
2018-03-02T05:31:39.915Z,100068.34
2018-03-02T05:34:12.439Z,100055.39
2018-03-02T05:36:44.966Z,100060.51
2018-03-02T05:39:17.488Z,100058.89
2018-03-02T05:41:50.250Z,100058.63
2018-03-02T05:44:22.760Z,100058.88
2018-03-02T05:46:56.298Z,100059.67
2018-03-02T05:49:28.809Z,100059.94
2018-03-02T05:52:01.338Z,100049.98
2018-03-02T05:54:33.861Z,100056.27
2018-03-02T05:57:06.389Z,100050.09
2018-03-02T05:59:38.944Z,100048.48
2018-03-02T06:02:11.482Z,100044.50
2018-03-02T06:04:43.998Z,100046.20
2018-03-02T06:07:16.522Z,100047.41
2018-03-02T06:09:49.027Z,100052.74
2018-03-02T06:12:21.559Z,100046.47
2018-03-02T06:14:54.072Z,100052.19
2018-03-02T06:17:26.611Z,100058.17
2018-03-02T06:19:59.137Z,100039.97
2018-03-02T06:22:31.669Z,100054.48
2018-03-02T06:25:04.178Z,100059.55
2018-03-02T06:27:36.719Z,100056.27
2018-03-02T06:30:09.246Z,100048.62
2018-03-02T06:32:41.772Z,100053.75
2018-03-02T06:35:14.291Z,100049.08
2018-03-02T06:37:46.811Z,100041.88
2018-03-02T06:40:19.324Z,100044.89
2018-03-02T06:42:51.848Z,100048.21
2018-03-02T06:45:24.372Z,100043.06
2018-03-02T06:47:56.906Z,100044.73
2018-03-02T06:50:29.422Z,100043.35
2018-03-02T06:53:01.934Z,100040.80
2018-03-02T06:55:34.441Z,100036.80
2018-03-02T06:58:06.980Z,100042.70
2018-03-02T07:00:39.495Z,100030.18
2018-03-02T07:03:12.040Z,100033.69
2018-03-02T07:05:44.546Z,100030.56
2018-03-02T07:08:17.071Z,100026.69
2018-03-02T07:10:49.575Z,100028.38
2018-03-02T07:13:22.109Z,100019.52
2018-03-02T07:15:54.663Z,100013.34
2018-03-02T07:18:27.191Z,100009.30
2018-03-02T07:20:59.727Z,100011.48
2018-03-02T07:23:32.243Z,100008.19
2018-03-02T07:26:04.775Z,99998.53
2018-03-02T07:28:37.331Z,100001.73
2018-03-02T07:31:09.878Z,100004.59
2018-03-02T07:33:42.383Z,99995.91
2018-03-02T07:36:14.908Z,100003.98
2018-03-02T07:38:47.442Z,100001.62
2018-03-02T07:41:19.969Z,100001.84
2018-03-02T07:43:52.473Z,100000.70
2018-03-02T07:46:25.002Z,99993.27
2018-03-02T07:48:57.521Z,99995.00
2018-03-02T07:51:30.046Z,99995.08
2018-03-02T07:54:02.549Z,99983.12
2018-03-02T07:56:35.094Z,99994.66
2018-03-02T07:59:07.600Z,99992.51
2018-03-02T08:01:40.132Z,100000.26
2018-03-02T08:04:12.632Z,99990.48
2018-03-02T08:06:45.193Z,99986.12
2018-03-02T08:09:17.692Z,99979.91
2018-03-02T08:11:50.285Z,99979.95
2018-03-02T08:14:22.785Z,99975.09
2018-03-02T08:16:55.316Z,99979.32
2018-03-02T08:19:27.821Z,99981.78
2018-03-02T08:22:00.349Z,99975.63
2018-03-02T08:24:32.862Z,99972.94
2018-03-02T08:27:05.381Z,99967.78
2018-03-02T08:29:37.900Z,99959.53
2018-03-02T08:32:10.425Z,99968.44
2018-03-02T08:34:42.931Z,99963.50
2018-03-02T08:37:15.463Z,99956.59
2018-03-02T08:39:47.960Z,99950.53
2018-03-02T08:42:20.477Z,99945.80
2018-03-02T08:44:52.975Z,99928.83
2018-03-02T08:47:25.495Z,99926.63
2018-03-02T08:49:58.009Z,99923.88
2018-03-02T08:52:30.553Z,99910.11
2018-03-02T08:55:03.058Z,99911.36
2018-03-02T08:57:35.582Z,99909.94
2018-03-02T09:00:08.099Z,99899.48
2018-03-02T09:02:40.635Z,99910.33
2018-03-02T09:05:13.148Z,99899.68
2018-03-02T09:07:45.670Z,99902.56
2018-03-02T09:10:18.180Z,99905.19
2018-03-02T09:12:50.737Z,99902.38
2018-03-02T09:15:23.245Z,99899.56
2018-03-02T09:17:55.791Z,99883.66
2018-03-02T09:20:28.288Z,99887.03
2018-03-02T09:23:00.818Z,99889.66
2018-03-02T09:25:33.328Z,99892.13
2018-03-02T09:28:05.853Z,99884.00
2018-03-02T09:30:38.357Z,99883.79
2018-03-02T09:33:10.901Z,99876.80
2018-03-02T09:35:43.404Z,99872.59
2018-03-02T09:38:15.931Z,99881.25
2018-03-02T09:40:48.427Z,99887.03
2018-03-02T09:43:20.952Z,99879.78
2018-03-02T09:45:53.465Z,99871.06
2018-03-02T09:48:25.997Z,99858.70
2018-03-02T09:50:58.494Z,99855.20
2018-03-02T09:53:31.025Z,99857.02
2018-03-02T09:56:03.539Z,99836.97
2018-03-02T09:58:36.051Z,99831.90
2018-03-02T10:01:08.580Z,99834.67
2018-03-02T10:03:41.144Z,99834.55
2018-03-02T10:06:13.724Z,99829.16
2018-03-02T10:08:46.250Z,99829.55
2018-03-02T10:11:18.753Z,99829.44
2018-03-02T10:13:51.281Z,99813.52
2018-03-02T10:16:23.786Z,99821.58
2018-03-02T10:18:56.609Z,99807.19
2018-03-02T10:21:29.133Z,99807.61
2018-03-02T10:24:01.643Z,99808.98
2018-03-02T10:26:34.150Z,99799.62
2018-03-02T10:29:06.683Z,99804.85
2018-03-02T10:31:39.189Z,99798.61
2018-03-02T10:34:11.710Z,99796.84
2018-03-02T10:36:44.215Z,99791.30
2018-03-02T10:39:16.749Z,99790.14
2018-03-02T10:41:49.254Z,99788.16
2018-03-02T10:44:21.774Z,99785.52
2018-03-02T10:46:54.271Z,99781.29
2018-03-02T10:49:26.806Z,99779.20
2018-03-02T10:51:59.308Z,99773.83
2018-03-02T10:54:31.830Z,99774.78
2018-03-02T10:57:04.332Z,99772.19
2018-03-02T10:59:36.849Z,99768.84
2018-03-02T11:02:14.956Z,99759.61
2018-03-02T11:04:47.462Z,99762.20
2018-03-02T11:07:19.998Z,99754.86
2018-03-02T11:09:52.513Z,99759.91
2018-03-02T11:12:25.029Z,99750.95
2018-03-02T11:14:57.527Z,99750.47
2018-03-02T11:17:30.047Z,99753.33
2018-03-02T11:20:02.541Z,99750.82
2018-03-02T11:22:35.068Z,99748.91
2018-03-02T11:25:07.576Z,99762.35
2018-03-02T11:27:40.119Z,99746.14
2018-03-02T11:30:12.662Z,99737.83
2018-03-02T11:32:45.200Z,99732.52
2018-03-02T11:35:17.711Z,99724.02
2018-03-02T11:37:50.240Z,99726.69
2018-03-02T11:40:22.741Z,99714.72
2018-03-02T11:42:55.289Z,99712.56
2018-03-02T11:45:27.788Z,99707.62
2018-03-02T11:48:00.304Z,99705.62
2018-03-02T11:50:32.837Z,99711.80
2018-03-02T11:53:05.357Z,99703.77
2018-03-02T11:55:37.871Z,99701.66
2018-03-02T11:58:10.390Z,99698.63
2018-03-02T12:00:42.899Z,99698.03
2018-03-02T12:03:15.432Z,99702.04
2018-03-02T12:05:47.997Z,99689.86
2018-03-02T12:08:20.525Z,99686.70
2018-03-02T12:10:53.089Z,99676.98
2018-03-02T12:13:25.618Z,99681.31
2018-03-02T12:15:58.122Z,99684.03
2018-03-02T12:18:30.655Z,99676.67
2018-03-02T12:21:03.171Z,99672.87
2018-03-02T12:23:35.816Z,99667.95
2018-03-02T12:26:08.356Z,99667.77
2018-03-02T12:28:40.902Z,99656.94
2018-03-02T12:31:13.417Z,99655.38
2018-03-02T12:33:45.968Z,99661.55
2018-03-02T12:36:18.483Z,99655.88
2018-03-02T12:38:51.022Z,99648.13
2018-03-02T12:41:23.523Z,99655.49
2018-03-02T12:43:56.044Z,99654.62
2018-03-02T12:46:28.556Z,99661.38
2018-03-02T12:49:01.163Z,99653.97
2018-03-02T12:51:33.713Z,99654.20
2018-03-02T12:54:06.312Z,99659.27
2018-03-02T12:56:38.816Z,99653.81
2018-03-02T12:59:11.381Z,99655.71
2018-03-02T13:01:43.890Z,99647.08
2018-03-02T13:04:16.407Z,99648.95
2018-03-02T13:06:48.980Z,99654.50
2018-03-02T13:09:21.566Z,99650.25
2018-03-02T13:11:54.073Z,99654.73
2018-03-02T13:14:26.593Z,99642.47
2018-03-02T13:16:59.092Z,99661.27
2018-03-02T13:19:32.612Z,99648.39
2018-03-02T13:22:05.131Z,99642.53
2018-03-02T13:24:37.855Z,99635.84
2018-03-02T13:27:22.094Z,99633.67
2018-03-02T13:29:54.616Z,99632.16
2018-03-02T13:32:27.119Z,99630.21
2018-03-02T13:35:15.332Z,99625.03
2018-03-02T13:37:47.832Z,99619.37
2018-03-02T13:40:32.173Z,99627.58
2018-03-02T13:43:04.691Z,99627.37
2018-03-02T13:45:37.213Z,99623.06
2018-03-02T13:51:18.001Z,99621.77
2018-03-02T13:53:50.532Z,99632.21
2018-03-02T13:56:34.891Z,99612.45
2018-03-02T13:59:07.427Z,99610.87
2018-03-02T14:01:39.936Z,99607.45
2018-03-02T14:04:24.337Z,99609.39
2018-03-02T14:06:56.856Z,99599.10
2018-03-02T14:09:29.368Z,99607.70
2018-03-02T14:12:01.877Z,99600.97
2018-03-02T14:14:34.398Z,99604.12
2018-03-02T14:17:06.920Z,99598.69
2018-03-02T14:19:39.448Z,99598.89
2018-03-02T14:22:12.098Z,99592.80
2018-03-02T14:24:44.612Z,99593.84
2018-03-02T14:27:17.629Z,99603.23
2018-03-02T14:29:50.200Z,99598.06
2018-03-02T14:35:01.717Z,99605.28
2018-03-02T14:37:34.217Z,99601.45
2018-03-02T14:40:06.741Z,99602.10
2018-03-02T14:42:39.262Z,99594.59
2018-03-02T14:45:11.833Z,99601.91
2018-03-02T14:47:44.602Z,99601.98
2018-03-02T14:50:17.162Z,99595.46
2018-03-02T14:52:49.699Z,99599.84
2018-03-02T14:55:22.260Z,99596.18
2018-03-02T14:57:54.963Z,99594.84
2018-03-02T15:00:27.559Z,99593.22
2018-03-02T15:03:00.400Z,99598.15
2018-03-02T15:05:33.069Z,99590.03
2018-03-02T15:08:05.578Z,99597.02
2018-03-02T15:10:38.301Z,99591.81
2018-03-02T15:13:10.828Z,99594.68
2018-03-02T15:15:43.364Z,99599.66
2018-03-02T15:18:15.889Z,99600.53
2018-03-02T15:20:48.420Z,99595.26
2018-03-02T15:23:29.277Z,99610.61
2018-03-02T15:26:02.254Z,99600.91
2018-03-02T15:28:34.877Z,99601.78
2018-03-02T15:31:07.464Z,99604.26
2018-03-02T15:33:39.976Z,99605.41
2018-03-02T15:36:12.504Z,99610.53
2018-03-02T15:38:45.004Z,99613.19
2018-03-02T15:41:17.531Z,99614.13
2018-03-02T15:43:50.039Z,99615.62
2018-03-02T15:46:22.553Z,99617.41
2018-03-02T15:48:55.061Z,99605.24
2018-03-02T15:51:27.604Z,99614.91
2018-03-02T15:54:00.121Z,99623.50
2018-03-02T15:56:32.640Z,99610.89
2018-03-02T15:59:05.143Z,99616.62
2018-03-02T16:01:37.668Z,99615.62
2018-03-02T16:04:10.176Z,99620.68
2018-03-02T16:06:42.689Z,99622.60
2018-03-02T16:09:15.196Z,99612.55
2018-03-02T16:11:47.704Z,99624.61
2018-03-02T16:14:20.210Z,99622.14
2018-03-02T16:16:52.782Z,99620.22
2018-03-02T16:19:25.293Z,99623.09
2018-03-02T16:21:57.808Z,99620.24
2018-03-02T16:24:30.343Z,99629.41
2018-03-02T16:27:02.863Z,99631.72
2018-03-02T16:29:35.438Z,99632.45
2018-03-02T16:32:07.956Z,99631.91
2018-03-02T16:34:40.466Z,99631.66
2018-03-02T16:37:12.996Z,99630.36
2018-03-02T16:39:45.507Z,99637.55
2018-03-02T16:42:18.025Z,99636.98
2018-03-02T16:44:50.584Z,99638.52
2018-03-02T16:47:23.103Z,99635.09
2018-03-02T16:49:55.620Z,99632.89
2018-03-02T16:52:28.145Z,99643.52
2018-03-02T16:55:00.664Z,99638.84
2018-03-02T16:57:33.204Z,99640.92
2018-03-02T17:00:05.714Z,99649.20
2018-03-02T17:02:38.246Z,99648.02
2018-03-02T17:05:10.764Z,99653.91
2018-03-02T17:07:43.289Z,99655.09
2018-03-02T17:10:15.807Z,99651.14
2018-03-02T17:12:48.344Z,99663.70
2018-03-02T17:15:20.849Z,99660.55
2018-03-02T17:17:53.372Z,99666.27
2018-03-02T17:20:25.896Z,99664.75
2018-03-02T17:54:16.925Z,99699.20
2018-03-02T17:56:49.681Z,99700.64
2018-03-02T17:59:22.310Z,99699.23
